Soaring Guidance
Issued by NWS Reno, NV

Home | Current Version | Previous Version | Text Only | Print | Product List | Glossary On
Versions: 1 2 3 4 5 6 7
000
UXUS97 KREV 221340
SRGREV

SOARING FORECAST
NATIONAL WEATHER SERVICE - RENO NV
700 AM PDT SUN APR 22 2018

THIS SOARING FORECAST IS FOR THE EASTERN SIERRA AND WESTERN NEVADA
WITH SPECIFIC INDICES FOR THE GREATER RENO AREA.

THIS FORECAST IS PREPARED DAILY BY 700 AM AND IS NOT UPDATED.

FOR CURRENT FLIGHT CONDITIONS...FORECASTS...AND ADVISORIES...ACCESS
YOUR LOCAL BRIEFING OUTLET OR FLIGHT SERVICE STATION.

*******************************************************************
FORECASTED LOCAL INDICES FOR RENO:        TODAY     YESTERDAY
FORECASTED MAX TEMP AT RENO (DEG F).....     79          78
FORECASTED TRIGGER TEMPERATURE (DEG F)..     66          62
   EXCEEDED YESTERDAY BY 1055 AM PDT
FORECASTED MAXIMUM ALTITUDE (FT MSL)....  16800       16400
FORECASTED SOARING INDEX (FPM)..........   1074        1002
FORECASTED K-INDEX.........VALID 18Z....     10          14
FORECASTED K-INDEX.........VALID 00Z....     24          26
FORECASTED LIFTED INDEX....VALID 18Z....      2           4
FORECASTED LIFTED INDEX....VALID 00Z....     -1           0

AFTERNOON WINDS ALOFT FORECAST
MSL (FT) WIND/TEMP
9000  2717/+08
10000 2517/+05
12000 2516/+00
14000 2519/-05
16000 2622/-10
18000 2731/-15
24000 2743/-28
30000 2747/-44
34000 2845/-55
39000 2652/-62

SLIDE MOUNTAIN DATA:
     DATE       TIME     TEMP  DEWPT   RH         WIND (MPH)
                        (F)   (F)           | DIR  SPEED GUST
2018-04-22    05:20      40    20     32    | 246   24   30
2018-04-22    05:00      40    20     32    | 242   23   28
2018-04-22    04:50      40    21     33    | 238   21   25
2018-04-22    04:30      40    22     35    | 234   21   28

SIERRA CREST 8700 FT DATA:
   DATE     TIME  TEMP  RH         WIND
                            DIR   SPEED   GUST
2018-04-22 0600   40   50   211     19     23
2018-04-22 0545   40   49   203     20     23
2018-04-22 0530   40   43   231     18     22
2018-04-22 0515   41   44   264     16     20

RENO TAF FORECAST:
KRNO 221120Z 2212/2312 VRB04KT P6SM FEW080
     FM222100 29014G24KT P6SM FEW080 SCT200
     FM230700 32005KT P6SM BKN200

CARSON CITY TAF FORECAST:
KCXP 221120Z 2212/2312 VRB03KT P6SM FEW070
     FM222000 25011G18KT P6SM FEW070 SCT200
     FM230400 VRB04KT P6SM BKN200

OUTLOOK FOR THE RENO-CARSON CITY-MINDEN AREA:
.MONDAY...SUNNY IN THE MORNING THEN BECOMING PARTLY CLOUDY. HIGHS
70 TO 75. LIGHT WINDS.

SUNRISE AND SUNSET
APRIL 22 2018.........SUNRISE   612 AM PDT   SUNSET   744 PM PDT
APRIL 23 2018.........SUNRISE   610 AM PDT   SUNSET   745 PM PDT



USA.gov is the U.S. government's official web portal to all federal, state and local government web resources and services.